LFRS/NTE METAR and TAF weather

Enter ICAO airport designator
Station Type Date Time Source
LFRS METAR 2021/03/09 10:00 UTC NOAA

LFRS 091000Z AUTO 36004KT 320V050 CAVOK 06/01 Q1023 NOSIG


Station Type Date Time Source
LFRS Decoded METAR 2021/03/09 10:00 UTC NOAA

Nantes, France (LFRS) 47-10N 001-36W 27M
Mar 09, 2021 - 05:00 AM EST / 2021.03.09 1000 UTC
Wind: from the N (360 degrees) at 5 MPH (4 KT) (direction variable):0
Visibility: greater than 7 mile(s):0
Temperature: 42 F (6 C)
Dew Point: 33 F (1 C)
Relative Humidity: 70%
Pressure (altimeter): 30.21 in. Hg (1023 hPa)
ob: LFRS 091000Z AUTO 36004KT 320V050 CAVOK 06/01 Q1023 NOSIG
cycle: 10

Station Type Date Time Source
LFRS TAF 2021/03/09 06:21 UTC NOAA

TAF LFRS 090500Z 0906/1012 36003KT CAVOK PROB30
TEMPO 0906/0908 4000 BR
BECMG 1009/1011 19010KT

Example: see airport list